sensor_id;sensor_type;location;lat;lon;timestamp;pressure;altitude;pressure_sealevel;temperature;humidity
72157;BME280;60035;52.122;5.406;2023-03-04T00:02:16;102893.81;;;5.51;80.59
72157;BME280;60035;52.122;5.406;2023-03-04T00:04:43;102894.66;;;5.50;80.54
72157;BME280;60035;52.122;5.406;2023-03-04T00:07:09;102890.44;;;5.51;80.87
72157;BME280;60035;52.122;5.406;2023-03-04T00:09:36;102889.59;;;5.50;80.71
72157;BME280;60035;52.122;5.406;2023-03-04T00:12:03;102893.81;;;5.51;81.19
72157;BME280;60035;52.122;5.406;2023-03-04T00:14:29;102893.81;;;5.51;80.68
72157;BME280;60035;52.122;5.406;2023-03-04T00:16:56;102894.72;;;5.54;81.33
72157;BME280;60035;52.122;5.406;2023-03-04T00:19:23;102890.47;;;5.53;81.33
72157;BME280;60035;52.122;5.406;2023-03-04T00:21:49;102893.91;;;5.55;81.13
72157;BME280;60035;52.122;5.406;2023-03-04T00:24:16;102884.53;;;5.52;81.27
72157;BME280;60035;52.122;5.406;2023-03-04T00:26:42;102882.88;;;5.54;81.36
72157;BME280;60035;52.122;5.406;2023-03-04T00:29:09;102887.03;;;5.50;81.42
72157;BME280;60035;52.122;5.406;2023-03-04T00:31:36;102886.19;;;5.51;81.50
72157;BME280;60035;52.122;5.406;2023-03-04T00:34:02;102885.34;;;5.51;81.68
72157;BME280;60035;52.122;5.406;2023-03-04T00:36:29;102889.66;;;5.54;81.89
72157;BME280;60035;52.122;5.406;2023-03-04T00:38:56;102899.00;;;5.55;81.59
72157;BME280;60035;52.122;5.406;2023-03-04T00:41:22;102885.34;;;5.51;81.86
72157;BME280;60035;52.122;5.406;2023-03-04T00:43:49;102892.13;;;5.50;82.21
72157;BME280;60035;52.122;5.406;2023-03-04T00:46:16;102887.91;;;5.53;82.10
72157;BME280;60035;52.122;5.406;2023-03-04T00:48:43;102887.88;;;5.51;82.19
72157;BME280;60035;52.122;5.406;2023-03-04T00:51:09;102885.34;;;5.51;82.26
72157;BME280;60035;52.122;5.406;2023-03-04T00:53:36;102892.16;;;5.52;82.38
72157;BME280;60035;52.122;5.406;2023-03-04T00:56:02;102887.88;;;5.51;82.80
72157;BME280;60035;52.122;5.406;2023-03-04T00:58:29;102887.88;;;5.51;82.66
72157;BME280;60035;52.122;5.406;2023-03-04T01:00:56;102891.25;;;5.50;82.73
72157;BME280;60035;52.122;5.406;2023-03-04T01:03:23;102891.22;;;5.48;82.82
72157;BME280;60035;52.122;5.406;2023-03-04T01:05:52;102891.22;;;5.48;82.89
72157;BME280;60035;52.122;5.406;2023-03-04T01:08:18;102893.75;;;5.48;83.08
72157;BME280;60035;52.122;5.406;2023-03-04T01:10:45;102894.56;;;5.47;82.72
72157;BME280;60035;52.122;5.406;2023-03-04T01:13:13;102886.09;;;5.47;82.96
72157;BME280;60035;52.122;5.406;2023-03-04T01:15:39;102886.97;;;5.49;83.01
72157;BME280;60035;52.122;5.406;2023-03-04T01:18:06;102898.03;;;5.49;83.09
72157;BME280;60035;52.122;5.406;2023-03-04T01:20:32;102892.94;;;5.49;82.95
72157;BME280;60035;52.122;5.406;2023-03-04T01:22:59;102889.53;;;5.49;83.23
72157;BME280;60035;52.122;5.406;2023-03-04T01:25:26;102886.97;;;5.49;83.00
72157;BME280;60035;52.122;5.406;2023-03-04T01:27:52;102887.78;;;5.46;83.49
72157;BME280;60035;52.122;5.406;2023-03-04T01:30:19;102881.03;;;5.47;83.38
72157;BME280;60035;52.122;5.406;2023-03-04T01:32:45;102879.28;;;5.46;83.08
72157;BME280;60035;52.122;5.406;2023-03-04T01:35:12;102871.63;;;5.44;83.36
72157;BME280;60035;52.122;5.406;2023-03-04T01:37:38;102869.91;;;5.43;83.31
72157;BME280;60035;52.122;5.406;2023-03-04T01:40:06;102872.41;;;5.42;82.64
72157;BME280;60035;52.122;5.406;2023-03-04T01:42:34;102863.09;;;5.42;82.52
72157;BME280;60035;52.122;5.406;2023-03-04T01:45:02;102867.38;;;5.43;82.59
72157;BME280;60035;52.122;5.406;2023-03-04T01:47:30;102861.44;;;5.43;82.31
72157;BME280;60035;52.122;5.406;2023-03-04T01:50:00;102857.22;;;5.43;82.22
72157;BME280;60035;52.122;5.406;2023-03-04T01:52:27;102856.34;;;5.43;82.09
72157;BME280;60035;52.122;5.406;2023-03-04T01:54:54;102852.94;;;5.42;82.27
72157;BME280;60035;52.122;5.406;2023-03-04T01:57:22;102848.72;;;5.41;82.25
72157;BME280;60035;52.122;5.406;2023-03-04T02:02:49;102838.56;;;5.43;81.74
72157;BME280;60035;52.122;5.406;2023-03-04T02:05:16;102836.00;;;5.41;81.57
72157;BME280;60035;52.122;5.406;2023-03-04T02:07:43;102836.00;;;5.41;81.82
72157;BME280;60035;52.122;5.406;2023-03-04T02:10:10;102830.06;;;5.42;81.82
72157;BME280;60035;52.122;5.406;2023-03-04T02:12:38;102834.31;;;5.42;81.52
72157;BME280;60035;52.122;5.406;2023-03-04T02:15:05;102831.78;;;5.42;81.13
72157;BME280;60035;52.122;5.406;2023-03-04T02:17:36;102828.41;;;5.43;81.20
72157;BME280;60035;52.122;5.406;2023-03-04T02:20:09;102828.38;;;5.41;81.30
72157;BME280;60035;52.122;5.406;2023-03-04T02:22:47;102830.00;;;5.39;81.49
72157;BME280;60035;52.122;5.406;2023-03-04T02:25:20;102819.03;;;5.40;81.26
72157;BME280;60035;52.122;5.406;2023-03-04T02:27:49;102821.56;;;5.40;81.29
72157;BME280;60035;52.122;5.406;2023-03-04T02:30:20;102813.06;;;5.40;81.54
72157;BME280;60035;52.122;5.406;2023-03-04T02:32:48;102809.72;;;5.41;81.12
72157;BME280;60035;52.122;5.406;2023-03-04T02:35:16;102815.69;;;5.41;81.21
72157;BME280;60035;52.122;5.406;2023-03-04T02:37:43;102816.53;;;5.42;81.26
72157;BME280;60035;52.122;5.406;2023-03-04T02:40:17;102809.69;;;5.39;81.47
72157;BME280;60035;52.122;5.406;2023-03-04T02:42:47;102807.97;;;5.38;81.38
72157;BME280;60035;52.122;5.406;2023-03-04T02:45:31;102803.78;;;5.40;81.25
72157;BME280;60035;52.122;5.406;2023-03-04T02:48:01;102806.34;;;5.40;81.74
72157;BME280;60035;52.122;5.406;2023-03-04T02:50:30;102803.78;;;5.40;81.21
72157;BME280;60035;52.122;5.406;2023-03-04T02:52:59;102804.59;;;5.39;81.19
72157;BME280;60035;52.122;5.406;2023-03-04T02:55:26;102797.84;;;5.40;81.31
72157;BME280;60035;52.122;5.406;2023-03-04T02:57:53;102797.81;;;5.38;81.15
72157;BME280;60035;52.122;5.406;2023-03-04T03:00:20;102801.13;;;5.36;81.00
72157;BME280;60035;52.122;5.406;2023-03-04T03:02:47;102793.47;;;5.34;81.13
72157;BME280;60035;52.122;5.406;2023-03-04T03:05:14;102790.91;;;5.32;80.80
72157;BME280;60035;52.122;5.406;2023-03-04T03:07:42;102795.94;;;5.31;80.55
72157;BME280;60035;52.122;5.406;2023-03-04T03:10:09;102793.41;;;5.31;79.65
72157;BME280;60035;52.122;5.406;2023-03-04T03:12:36;102791.69;;;5.30;79.78
72157;BME280;60035;52.122;5.406;2023-03-04T03:15:04;102779.81;;;5.29;79.96
72157;BME280;60035;52.122;5.406;2023-03-04T03:17:30;102786.59;;;5.30;79.81
72157;BME280;60035;52.122;5.406;2023-03-04T03:19:57;102784.06;;;5.30;80.13
72157;BME280;60035;52.122;5.406;2023-03-04T03:22:23;102775.56;;;5.28;80.08
72157;BME280;60035;52.122;5.406;2023-03-04T03:24:50;102782.34;;;5.29;79.84
72157;BME280;60035;52.122;5.406;2023-03-04T03:27:17;102773.91;;;5.30;80.04
72157;BME280;60035;52.122;5.406;2023-03-04T03:29:43;102781.53;;;5.30;80.18
72157;BME280;60035;52.122;5.406;2023-03-04T03:32:10;102779.84;;;5.30;80.15
72157;BME280;60035;52.122;5.406;2023-03-04T03:34:37;102771.34;;;5.28;79.70
72157;BME280;60035;52.122;5.406;2023-03-04T03:37:03;102767.13;;;5.30;79.95
72157;BME280;60035;52.122;5.406;2023-03-04T03:39:30;102773.88;;;5.28;80.17
72157;BME280;60035;52.122;5.406;2023-03-04T03:41:56;102767.09;;;5.29;80.23
72157;BME280;60035;52.122;5.406;2023-03-04T03:44:23;102778.13;;;5.29;80.14
72157;BME280;60035;52.122;5.406;2023-03-04T03:46:50;102775.63;;;5.31;80.00
72157;BME280;60035;52.122;5.406;2023-03-04T03:49:16;102769.72;;;5.32;80.58
72157;BME280;60035;52.122;5.406;2023-03-04T03:51:43;102762.94;;;5.31;80.62
72157;BME280;60035;52.122;5.406;2023-03-04T03:54:10;102771.44;;;5.33;81.12
72157;BME280;60035;52.122;5.406;2023-03-04T03:56:36;102770.59;;;5.32;80.63
72157;BME280;60035;52.122;5.406;2023-03-04T03:59:09;102778.22;;;5.34;81.03
72157;BME280;60035;52.122;5.406;2023-03-04T04:01:35;102774.81;;;5.32;81.31
72157;BME280;60035;52.122;5.406;2023-03-04T04:04:02;102773.97;;;5.33;82.29
72157;BME280;60035;52.122;5.406;2023-03-04T04:06:29;102782.38;;;5.30;82.75
72157;BME280;60035;52.122;5.406;2023-03-04T04:08:56;102767.94;;;5.28;83.28
72157;BME280;60035;52.122;5.406;2023-03-04T04:11:22;102779.78;;;5.27;83.60
72157;BME280;60035;52.122;5.406;2023-03-04T04:13:49;102776.28;;;5.24;84.20
72157;BME280;60035;52.122;5.406;2023-03-04T04:16:15;102778.78;;;5.22;84.26
72157;BME280;60035;52.122;5.406;2023-03-04T04:18:42;102782.16;;;5.21;84.75
72157;BME280;60035;52.122;5.406;2023-03-04T04:21:09;102783.81;;;5.19;84.94
72157;BME280;60035;52.122;5.406;2023-03-04T04:23:35;102777.94;;;5.22;85.08
72157;BME280;60035;52.122;5.406;2023-03-04T04:26:02;102771.97;;;5.20;84.46
72157;BME280;60035;52.122;5.406;2023-03-04T04:28:29;102783.81;;;5.19;84.18
72157;BME280;60035;52.122;5.406;2023-03-04T04:30:55;102781.31;;;5.21;84.30
72157;BME280;60035;52.122;5.406;2023-03-04T04:33:22;102776.19;;;5.19;84.14
72157;BME280;60035;52.122;5.406;2023-03-04T04:35:49;102780.41;;;5.18;83.99
72157;BME280;60035;52.122;5.406;2023-03-04T04:38:15;102779.56;;;5.18;84.20
72157;BME280;60035;52.122;5.406;2023-03-04T04:40:42;102785.44;;;5.17;84.18
72157;BME280;60035;52.122;5.406;2023-03-04T04:43:09;102785.47;;;5.18;84.32
72157;BME280;60035;52.122;5.406;2023-03-04T04:45:35;102782.91;;;5.17;84.40
72157;BME280;60035;52.122;5.406;2023-03-04T04:48:02;102782.88;;;5.15;84.37
72157;BME280;60035;52.122;5.406;2023-03-04T04:50:29;102782.03;;;5.15;84.37
72157;BME280;60035;52.122;5.406;2023-03-04T04:52:59;102787.94;;;5.15;84.31
72157;BME280;60035;52.122;5.406;2023-03-04T04:55:26;102787.13;;;5.16;84.05
72157;BME280;60035;52.122;5.406;2023-03-04T04:57:53;102785.44;;;5.17;83.86
72157;BME280;60035;52.122;5.406;2023-03-04T05:00:20;102774.44;;;5.16;83.76
72157;BME280;60035;52.122;5.406;2023-03-04T05:02:47;102776.94;;;5.15;83.73
72157;BME280;60035;52.122;5.406;2023-03-04T05:05:13;102777.81;;;5.17;83.32
72157;BME280;60035;52.122;5.406;2023-03-04T05:07:40;102781.25;;;5.17;83.31
72157;BME280;60035;52.122;5.406;2023-03-04T05:10:07;102780.41;;;5.18;83.08
72157;BME280;60035;52.122;5.406;2023-03-04T05:12:34;102779.56;;;5.18;83.03
72157;BME280;60035;52.122;5.406;2023-03-04T05:15:00;102782.09;;;5.18;82.93
72157;BME280;60035;52.122;5.406;2023-03-04T05:17:27;102771.09;;;5.17;83.42
72157;BME280;60035;52.122;5.406;2023-03-04T05:19:54;102776.16;;;5.17;83.28
72157;BME280;60035;52.122;5.406;2023-03-04T05:22:20;102770.25;;;5.18;83.89
72157;BME280;60035;52.122;5.406;2023-03-04T05:24:47;102771.94;;;5.18;83.68
72157;BME280;60035;52.122;5.406;2023-03-04T05:27:13;102777.00;;;5.18;83.82
72157;BME280;60035;52.122;5.406;2023-03-04T05:29:40;102772.78;;;5.18;83.87
72157;BME280;60035;52.122;5.406;2023-03-04T05:32:09;102778.69;;;5.17;83.84
72157;BME280;60035;52.122;5.406;2023-03-04T05:34:36;102776.16;;;5.17;84.04
72157;BME280;60035;52.122;5.406;2023-03-04T05:37:03;102784.66;;;5.20;83.82
72157;BME280;60035;52.122;5.406;2023-03-04T05:39:29;102778.69;;;5.17;83.97
72157;BME280;60035;52.122;5.406;2023-03-04T05:41:56;102787.19;;;5.20;84.15
72157;BME280;60035;52.122;5.406;2023-03-04T05:44:23;102784.66;;;5.20;84.34
72157;BME280;60035;52.122;5.406;2023-03-04T05:46:49;102785.47;;;5.18;84.88
72157;BME280;60035;52.122;5.406;2023-03-04T05:49:16;102781.22;;;5.16;85.09
72157;BME280;60035;52.122;5.406;2023-03-04T05:51:43;102783.78;;;5.17;85.08
72157;BME280;60035;52.122;5.406;2023-03-04T05:54:09;102784.59;;;5.16;85.27
72157;BME280;60035;52.122;5.406;2023-03-04T05:56:36;102784.59;;;5.16;85.31
72157;BME280;60035;52.122;5.406;2023-03-04T05:59:03;102776.94;;;5.15;85.57
72157;BME280;60035;52.122;5.406;2023-03-04T06:01:29;102784.56;;;5.15;85.64
72157;BME280;60035;52.122;5.406;2023-03-04T06:03:57;102776.06;;;5.14;85.58
72157;BME280;60035;52.122;5.406;2023-03-04T06:06:23;102776.06;;;5.14;85.54
72157;BME280;60035;52.122;5.406;2023-03-04T06:08:50;102776.97;;;5.16;85.80
72157;BME280;60035;52.122;5.406;2023-03-04T06:11:17;102779.53;;;5.16;85.75
72157;BME280;60035;52.122;5.406;2023-03-04T06:13:44;102785.44;;;5.17;86.40
72157;BME280;60035;52.122;5.406;2023-03-04T06:16:10;102782.91;;;5.17;85.81
72157;BME280;60035;52.122;5.406;2023-03-04T06:18:37;102777.78;;;5.15;86.02
72157;BME280;60035;52.122;5.406;2023-03-04T06:21:04;102781.22;;;5.16;85.98
72157;BME280;60035;52.122;5.406;2023-03-04T06:23:32;102782.03;;;5.15;86.21
72157;BME280;60035;52.122;5.406;2023-03-04T06:25:59;102782.03;;;5.15;86.20
72157;BME280;60035;52.122;5.406;2023-03-04T06:28:27;102780.34;;;5.15;86.44
72157;BME280;60035;52.122;5.406;2023-03-04T06:30:54;102784.56;;;5.15;86.51
72157;BME280;60035;52.122;5.406;2023-03-04T06:33:22;102783.69;;;5.14;86.95
72157;BME280;60035;52.122;5.406;2023-03-04T06:35:53;102781.16;;;5.14;87.17
72157;BME280;60035;52.122;5.406;2023-03-04T06:38:20;102787.09;;;5.15;87.24
72157;BME280;60035;52.122;5.406;2023-03-04T06:40:46;102787.09;;;5.15;87.38
72157;BME280;60035;52.122;5.406;2023-03-04T06:43:13;102789.63;;;5.15;87.45
72157;BME280;60035;52.122;5.406;2023-03-04T06:45:40;102793.91;;;5.16;87.53
72157;BME280;60035;52.122;5.406;2023-03-04T06:48:07;102795.63;;;5.18;87.51
72157;BME280;60035;52.122;5.406;2023-03-04T06:50:33;102791.41;;;5.17;88.04
72157;BME280;60035;52.122;5.406;2023-03-04T06:53:00;102796.47;;;5.17;88.06
72157;BME280;60035;52.122;5.406;2023-03-04T06:55:27;102788.84;;;5.17;88.25
72157;BME280;60035;52.122;5.406;2023-03-04T06:57:53;102798.91;;;5.14;88.30
72157;BME280;60035;52.122;5.406;2023-03-04T07:00:20;102794.63;;;5.12;88.73
72157;BME280;60035;52.122;5.406;2023-03-04T07:02:49;102799.78;;;5.13;88.68
72157;BME280;60035;52.122;5.406;2023-03-04T07:05:18;102803.19;;;5.15;88.67
72157;BME280;60035;52.122;5.406;2023-03-04T07:07:45;102807.47;;;5.18;89.05
72157;BME280;60035;52.122;5.406;2023-03-04T07:10:12;102800.81;;;5.22;89.01
72157;BME280;60035;52.122;5.406;2023-03-04T07:12:39;102806.84;;;5.25;88.84
72157;BME280;60035;52.122;5.406;2023-03-04T07:15:06;102808.50;;;5.25;89.11
72157;BME280;60035;52.122;5.406;2023-03-04T07:17:33;102802.53;;;5.23;89.75
72157;BME280;60035;52.122;5.406;2023-03-04T07:20:00;102807.66;;;5.24;90.62
72157;BME280;60035;52.122;5.406;2023-03-04T07:22:26;102807.66;;;5.24;90.88
72157;BME280;60035;52.122;5.406;2023-03-04T07:24:53;102806.91;;;5.28;90.98
72157;BME280;60035;52.122;5.406;2023-03-04T07:27:20;102807.00;;;5.33;91.19
72157;BME280;60035;52.122;5.406;2023-03-04T07:29:46;102814.69;;;5.34;91.00
72157;BME280;60035;52.122;5.406;2023-03-04T07:32:13;102805.41;;;5.37;91.31
72157;BME280;60035;52.122;5.406;2023-03-04T07:34:40;102800.44;;;5.41;91.45
72157;BME280;60035;52.122;5.406;2023-03-04T07:37:07;102812.38;;;5.45;91.51
72157;BME280;60035;52.122;5.406;2023-03-04T07:39:33;102809.09;;;5.49;91.47
72157;BME280;60035;52.122;5.406;2023-03-04T07:42:00;102807.44;;;5.51;91.84
72157;BME280;60035;52.122;5.406;2023-03-04T07:44:27;102810.91;;;5.55;91.89
72157;BME280;60035;52.122;5.406;2023-03-04T07:46:53;102816.13;;;5.60;91.73
72157;BME280;60035;52.122;5.406;2023-03-04T07:49:20;102815.34;;;5.64;91.59
72157;BME280;60035;52.122;5.406;2023-03-04T07:51:47;102808.69;;;5.69;91.77
72157;BME280;60035;52.122;5.406;2023-03-04T07:54:13;102807.94;;;5.73;91.52
72157;BME280;60035;52.122;5.406;2023-03-04T07:56:40;102809.72;;;5.77;91.41
72157;BME280;60035;52.122;5.406;2023-03-04T07:59:06;102815.78;;;5.84;91.40
72157;BME280;60035;52.122;5.406;2023-03-04T08:01:36;102817.59;;;5.90;91.06
72157;BME280;60035;52.122;5.406;2023-03-04T08:04:04;102820.28;;;5.94;91.45
72157;BME280;60035;52.122;5.406;2023-03-04T08:06:31;102820.31;;;5.97;91.12
72157;BME280;60035;52.122;5.406;2023-03-04T08:09:01;102818.72;;;5.99;90.62
72157;BME280;60035;52.122;5.406;2023-03-04T08:11:29;102822.22;;;6.05;90.58
72157;BME280;60035;52.122;5.406;2023-03-04T08:13:56;102824.09;;;6.13;90.83
72157;BME280;60035;52.122;5.406;2023-03-04T08:16:23;102821.63;;;6.16;90.43
72157;BME280;60035;52.122;5.406;2023-03-04T08:18:53;102830.19;;;6.22;90.27
72157;BME280;60035;52.122;5.406;2023-03-04T08:21:21;102826.03;;;6.25;90.45
72157;BME280;60035;52.122;5.406;2023-03-04T08:23:49;102836.22;;;6.27;90.43
72157;BME280;60035;52.122;5.406;2023-03-04T08:28:43;102826.75;;;6.18;92.13
72157;BME280;60035;52.122;5.406;2023-03-04T08:31:15;102833.50;;;6.17;92.75
72157;BME280;60035;52.122;5.406;2023-03-04T08:33:42;102826.78;;;6.21;93.41
72157;BME280;60035;52.122;5.406;2023-03-04T08:36:09;102837.88;;;6.23;93.52
72157;BME280;60035;52.122;5.406;2023-03-04T08:38:36;102832.72;;;6.22;93.38
72157;BME280;60035;52.122;5.406;2023-03-04T08:41:03;102832.00;;;6.26;93.44
72157;BME280;60035;52.122;5.406;2023-03-04T08:43:30;102836.50;;;6.39;93.80
72157;BME280;60035;52.122;5.406;2023-03-04T08:45:57;102827.31;;;6.47;93.32
72157;BME280;60035;52.122;5.406;2023-03-04T08:48:24;102823.22;;;6.56;93.28
72157;BME280;60035;52.122;5.406;2023-03-04T08:50:52;102828.38;;;6.59;92.48
72157;BME280;60035;52.122;5.406;2023-03-04T08:53:20;102825.94;;;6.63;92.21
72157;BME280;60035;52.122;5.406;2023-03-04T08:55:47;102822.63;;;6.67;91.63
72157;BME280;60035;52.122;5.406;2023-03-04T08:58:15;102827.72;;;6.69;91.96
72157;BME280;60035;52.122;5.406;2023-03-04T09:00:44;102826.00;;;6.68;92.26
72157;BME280;60035;52.122;5.406;2023-03-04T09:03:15;102830.25;;;6.67;92.48
72157;BME280;60035;52.122;5.406;2023-03-04T09:05:44;102827.75;;;6.71;92.62
72157;BME280;60035;52.122;5.406;2023-03-04T09:08:16;102820.19;;;6.74;92.87
72157;BME280;60035;52.122;5.406;2023-03-04T09:10:44;102831.38;;;6.82;93.24
72157;BME280;60035;52.122;5.406;2023-03-04T09:13:12;102827.34;;;6.93;93.40
72157;BME280;60035;52.122;5.406;2023-03-04T09:15:46;102818.97;;;7.02;92.80
72157;BME280;60035;52.122;5.406;2023-03-04T09:18:14;102819.94;;;7.07;93.08
72157;BME280;60035;52.122;5.406;2023-03-04T09:20:40;102813.25;;;7.14;93.10
72157;BME280;60035;52.122;5.406;2023-03-04T09:23:07;102812.59;;;7.27;92.71
72157;BME280;60035;52.122;5.406;2023-03-04T09:25:38;102815.97;;;7.25;92.29
72157;BME280;60035;52.122;5.406;2023-03-04T09:28:06;102821.97;;;7.28;91.98
72157;BME280;60035;52.122;5.406;2023-03-04T09:30:33;102818.75;;;7.39;92.08
72157;BME280;60035;52.122;5.406;2023-03-04T09:33:00;102820.41;;;7.37;91.64
72157;BME280;60035;52.122;5.406;2023-03-04T09:35:27;102817.81;;;7.33;91.46
72157;BME280;60035;52.122;5.406;2023-03-04T09:37:56;102814.34;;;7.30;92.28
72157;BME280;60035;52.122;5.406;2023-03-04T09:40:30;102810.94;;;7.28;93.03
72157;BME280;60035;52.122;5.406;2023-03-04T09:43:00;102816.09;;;7.32;92.57
72157;BME280;60035;52.122;5.406;2023-03-04T09:45:36;102812.78;;;7.38;92.08
72157;BME280;60035;52.122;5.406;2023-03-04T09:48:04;102812.78;;;7.38;92.06
72157;BME280;60035;52.122;5.406;2023-03-04T09:50:33;102806.13;;;7.46;91.97
72157;BME280;60035;52.122;5.406;2023-03-04T09:53:30;102802.78;;;7.49;91.45
72157;BME280;60035;52.122;5.406;2023-03-04T09:56:01;102801.00;;;7.45;91.25
72157;BME280;60035;52.122;5.406;2023-03-04T09:58:41;102800.41;;;7.63;91.48
72157;BME280;60035;52.122;5.406;2023-03-04T10:03:57;102788.78;;;7.82;89.35
72157;BME280;60035;52.122;5.406;2023-03-04T10:06:26;102794.88;;;7.95;88.71
72157;BME280;60035;52.122;5.406;2023-03-04T10:09:00;102790.75;;;8.03;88.32
72157;BME280;60035;52.122;5.406;2023-03-04T10:11:37;102788.16;;;8.01;87.60
72157;BME280;60035;52.122;5.406;2023-03-04T10:16:54;102781.22;;;7.90;87.27
72157;BME280;60035;52.122;5.406;2023-03-04T10:22:16;102784.56;;;7.84;87.33
72157;BME280;60035;52.122;5.406;2023-03-04T10:24:45;102784.53;;;7.82;87.48
72157;BME280;60035;52.122;5.406;2023-03-04T10:27:16;102779.53;;;7.90;87.62
72157;BME280;60035;52.122;5.406;2023-03-04T10:29:44;102770.97;;;7.87;87.26
72157;BME280;60035;52.122;5.406;2023-03-04T10:32:17;102775.41;;;8.00;87.52
72157;BME280;60035;52.122;5.406;2023-03-04T10:34:44;102766.97;;;8.06;87.02
72157;BME280;60035;52.122;5.406;2023-03-04T10:37:11;102781.66;;;8.25;86.50
72157;BME280;60035;52.122;5.406;2023-03-04T10:39:42;102780.03;;;8.32;85.43
72157;BME280;60035;52.122;5.406;2023-03-04T10:44:52;102774.19;;;8.42;84.62
72157;BME280;60035;52.122;5.406;2023-03-04T10:47:23;102773.50;;;8.54;84.90
72157;BME280;60035;52.122;5.406;2023-03-04T10:49:58;102766.72;;;8.55;84.15
72157;BME280;60035;52.122;5.406;2023-03-04T10:52:28;102772.66;;;8.54;83.91
72157;BME280;60035;52.122;5.406;2023-03-04T10:54:58;102779.47;;;8.55;84.02
72157;BME280;60035;52.122;5.406;2023-03-04T10:57:38;102770.13;;;8.57;83.86
72157;BME280;60035;52.122;5.406;2023-03-04T11:03:27;102766.06;;;8.76;84.25
72157;BME280;60035;52.122;5.406;2023-03-04T11:06:06;102763.44;;;8.71;83.30
72157;BME280;60035;52.122;5.406;2023-03-04T11:08:33;102759.16;;;8.69;83.62
72157;BME280;60035;52.122;5.406;2023-03-04T11:11:00;102762.53;;;8.66;84.21
72157;BME280;60035;52.122;5.406;2023-03-04T11:13:27;102770.19;;;8.61;84.72
72157;BME280;60035;52.122;5.406;2023-03-04T11:15:58;102769.06;;;8.39;86.08
72157;BME280;60035;52.122;5.406;2023-03-04T11:18:40;102765.41;;;8.17;88.56
72157;BME280;60035;52.122;5.406;2023-03-04T11:21:29;102761.94;;;8.13;90.23
72157;BME280;60035;52.122;5.406;2023-03-04T11:24:05;102760.09;;;8.00;92.24
72157;BME280;60035;52.122;5.406;2023-03-04T11:27:17;102755.88;;;8.02;93.52
72157;BME280;60035;52.122;5.406;2023-03-04T11:32:48;102770.88;;;7.80;95.46
72157;BME280;60035;52.122;5.406;2023-03-04T11:35:55;102766.34;;;7.59;95.95
72157;BME280;60035;52.122;5.406;2023-03-04T11:38:42;102762.13;;;7.60;97.81
72157;BME280;60035;52.122;5.406;2023-03-04T11:41:13;102763.94;;;7.68;98.19
72157;BME280;60035;52.122;5.406;2023-03-04T11:43:45;102760.56;;;7.71;98.90
72157;BME280;60035;52.122;5.406;2023-03-04T11:56:52;102750.44;;;8.46;97.25
72157;BME280;60035;52.122;5.406;2023-03-04T11:59:39;102740.53;;;8.76;96.87
72157;BME280;60035;52.122;5.406;2023-03-04T12:02:20;102735.44;;;8.82;95.40
72157;BME280;60035;52.122;5.406;2023-03-04T12:10:42;102722.88;;;9.07;91.25
72157;BME280;60035;52.122;5.406;2023-03-04T12:25:01;102728.81;;;8.15;88.39
72157;BME280;60035;52.122;5.406;2023-03-04T12:27:26;102741.38;;;7.99;90.20
72157;BME280;60035;52.122;5.406;2023-03-04T12:30:05;102726.06;;;7.96;90.39
72157;BME280;60035;52.122;5.406;2023-03-04T12:32:52;102720.19;;;8.04;90.68
72157;BME280;60035;52.122;5.406;2023-03-04T12:36:12;102718.63;;;8.15;89.55
72157;BME280;60035;52.122;5.406;2023-03-04T12:38:41;102718.72;;;8.27;89.46
72157;BME280;60035;52.122;5.406;2023-03-04T12:44:16;102702.88;;;8.56;88.46
72157;BME280;60035;52.122;5.406;2023-03-04T12:49:28;102699.66;;;8.79;85.02
72157;BME280;60035;52.122;5.406;2023-03-04T12:54:42;102701.47;;;8.94;82.59
72157;BME280;60035;52.122;5.406;2023-03-04T12:57:24;102691.31;;;9.02;81.63
72157;BME280;60035;52.122;5.406;2023-03-04T13:02:55;102676.91;;;9.14;80.09
72157;BME280;60035;52.122;5.406;2023-03-04T13:08:28;102686.06;;;8.83;79.29
72157;BME280;60035;52.122;5.406;2023-03-04T13:11:02;102691.88;;;8.65;80.04
72157;BME280;60035;52.122;5.406;2023-03-04T13:13:39;102682.25;;;8.36;80.72
72157;BME280;60035;52.122;5.406;2023-03-04T13:18:36;102694.56;;;7.96;82.60
72157;BME280;60035;52.122;5.406;2023-03-04T13:23:39;102692.50;;;7.65;85.16
72157;BME280;60035;52.122;5.406;2023-03-04T13:26:48;102683.09;;;7.58;85.50
72157;BME280;60035;52.122;5.406;2023-03-04T13:32:34;102680.56;;;7.63;87.50
72157;BME280;60035;52.122;5.406;2023-03-04T13:35:02;102692.53;;;7.67;88.33
72157;BME280;60035;52.122;5.406;2023-03-04T13:40:23;102683.13;;;7.64;86.37
72157;BME280;60035;52.122;5.406;2023-03-04T13:42:50;102679.72;;;7.62;85.89
72157;BME280;60035;52.122;5.406;2023-03-04T13:45:35;102680.56;;;7.63;85.00
72157;BME280;60035;52.122;5.406;2023-03-04T13:48:07;102673.84;;;7.70;84.96
72157;BME280;60035;52.122;5.406;2023-03-04T13:50:48;102679.06;;;7.77;84.49
72157;BME280;60035;52.122;5.406;2023-03-04T13:53:26;102672.41;;;7.90;84.69
72157;BME280;60035;52.122;5.406;2023-03-04T13:56:03;102668.25;;;7.98;83.93
72157;BME280;60035;52.122;5.406;2023-03-04T13:58:31;102663.22;;;8.06;83.67
72157;BME280;60035;52.122;5.406;2023-03-04T14:00:59;102658.94;;;8.02;82.26
72157;BME280;60035;52.122;5.406;2023-03-04T14:03:28;102662.19;;;7.89;82.25
72157;BME280;60035;52.122;5.406;2023-03-04T14:08:35;102664.56;;;7.73;79.90
72157;BME280;60035;52.122;5.406;2023-03-04T14:11:01;102661.09;;;7.66;78.92
72157;BME280;60035;52.122;5.406;2023-03-04T14:13:28;102656.81;;;7.64;77.68
72157;BME280;60035;52.122;5.406;2023-03-04T14:15:56;102655.91;;;7.60;77.41
72157;BME280;60035;52.122;5.406;2023-03-04T14:18:24;102656.78;;;7.62;77.59
72157;BME280;60035;52.122;5.406;2023-03-04T14:20:51;102656.00;;;7.70;77.93
72157;BME280;60035;52.122;5.406;2023-03-04T14:23:33;102660.25;;;7.66;77.39
72157;BME280;60035;52.122;5.406;2023-03-04T14:26:11;102651.69;;;7.64;77.59
72157;BME280;60035;52.122;5.406;2023-03-04T14:28:42;102650.03;;;7.66;77.79
72157;BME280;60035;52.122;5.406;2023-03-04T14:31:15;102653.41;;;7.63;77.38